Time;durP1;ratioP1;P1;durP2;ratioP2;P2;SDS_P1;SDS_P2;PMS_P1;PMS_P2;Temp;Humidity;BMP_temperature;BMP_pressure;BME280_temperature;BME280_humidity;BME280_pressure;Samples;Min_cycle;Max_cycle;Signal;HPM_P1;HPM_P2
2021/10/05 04:01:43;;;;;;;6.63;5.28;;;10.70;99.90;;;;;;5398876;23;20225;-70
2021/10/05 04:04:10;;;;;;;6.03;4.35;;;10.70;99.90;;;;;;4958107;28;20240;-70
2021/10/05 04:06:37;;;;;;;4.93;4.43;;;10.80;99.90;;;;;;4960697;28;20224;-70
2021/10/05 04:09:06;;;;;;;7.03;5.40;;;10.70;99.90;;;;;;4957825;28;20215;-68
2021/10/05 04:11:32;;;;;;;5.85;5.25;;;10.70;99.90;;;;;;4960323;28;20232;-67
2021/10/05 04:13:59;;;;;;;5.60;5.10;;;10.80;99.90;;;;;;4954527;28;20205;-67
2021/10/05 04:16:26;;;;;;;4.85;4.55;;;10.80;99.90;;;;;;4955053;28;20209;-71
2021/10/05 04:18:54;;;;;;;4.80;4.47;;;10.80;99.90;;;;;;4945540;28;20616;-71
2021/10/05 04:21:20;;;;;;;4.90;4.60;;;10.80;99.90;;;;;;4936072;29;20234;-70
2021/10/05 04:23:47;;;;;;;5.30;4.65;;;10.80;99.90;;;;;;4935596;29;20218;-71
2021/10/05 04:26:16;;;;;;;5.15;4.70;;;10.80;99.90;;;;;;4935566;29;20268;-71
2021/10/05 04:28:42;;;;;;;4.85;4.30;;;10.80;99.90;;;;;;4935100;29;20206;-71
2021/10/05 04:31:09;;;;;;;5.95;4.43;;;10.80;99.90;;;;;;4935536;29;20278;-73
2021/10/05 04:33:36;;;;;;;5.05;4.60;;;10.80;99.90;;;;;;4934088;29;20213;-70
2021/10/05 04:36:04;;;;;;;4.90;4.50;;;10.80;99.90;;;;;;4935707;29;20574;-71
2021/10/05 04:38:31;;;;;;;4.10;3.90;;;10.80;99.90;;;;;;4939867;29;20316;-70
2021/10/05 04:40:58;;;;;;;6.10;4.95;;;10.80;99.90;;;;;;4941410;29;20259;-70
2021/10/05 04:43:25;;;;;;;4.93;4.63;;;10.80;99.90;;;;;;4941422;29;20580;-69
2021/10/05 04:45:51;;;;;;;6.40;5.00;;;10.80;99.90;;;;;;4942839;29;20209;-68
2021/10/05 04:48:18;;;;;;;5.57;4.90;;;10.80;99.90;;;;;;4941923;29;20670;-68
2021/10/05 04:50:45;;;;;;;5.63;4.90;;;10.80;99.90;;;;;;4941453;29;20292;-69
2021/10/05 04:53:15;;;;;;;4.90;4.70;;;10.80;99.90;;;;;;4942146;29;20728;-68
2021/10/05 04:55:43;;;;;;;5.43;4.93;;;10.80;99.90;;;;;;4941600;29;20210;-68
2021/10/05 04:58:10;;;;;;;5.03;4.72;;;10.80;99.90;;;;;;4941572;29;20317;-68
2021/10/05 05:00:36;;;;;;;4.70;4.40;;;10.80;99.90;;;;;;4940733;29;20292;-69
2021/10/05 05:03:03;;;;;;;4.93;4.57;;;10.90;99.90;;;;;;4941278;29;20629;-68
2021/10/05 05:05:30;;;;;;;6.57;4.88;;;10.90;99.90;;;;;;4942164;29;20273;-68
2021/10/05 05:08:01;;;;;;;4.72;4.43;;;10.90;99.90;;;;;;4947455;29;20552;-68
2021/10/05 05:10:29;;;;;;;8.30;4.55;;;10.90;99.90;;;;;;4960238;28;20233;-68
2021/10/05 05:12:56;;;;;;;4.43;4.18;;;10.90;99.90;;;;;;4960346;28;20209;-68
2021/10/05 05:15:23;;;;;;;4.88;4.47;;;10.90;99.90;;;;;;4959983;28;20268;-68
2021/10/05 05:17:50;;;;;;;5.18;4.78;;;10.90;99.90;;;;;;4960430;28;20213;-68
2021/10/05 05:20:16;;;;;;;5.43;5.00;;;11.00;99.90;;;;;;4959517;28;20209;-68
2021/10/05 05:22:44;;;;;;;7.10;5.30;;;11.00;99.90;;;;;;4960255;28;20220;-68
2021/10/05 05:25:11;;;;;;;5.70;5.20;;;11.00;99.90;;;;;;4960221;28;20210;-67
2021/10/05 05:27:39;;;;;;;6.50;5.18;;;11.00;99.90;;;;;;4960527;28;20210;-67
2021/10/05 05:30:07;;;;;;;5.57;4.57;;;11.00;99.90;;;;;;4959889;28;20550;-70
2021/10/05 05:32:34;;;;;;;7.43;4.85;;;11.00;99.90;;;;;;4960197;28;20268;-70
2021/10/05 05:35:01;;;;;;;4.90;4.57;;;11.10;99.90;;;;;;4959348;28;20217;-70
2021/10/05 05:37:28;;;;;;;5.45;4.75;;;11.00;99.90;;;;;;4960376;28;20669;-70
2021/10/05 05:39:54;;;;;;;4.68;4.28;;;11.00;99.90;;;;;;4960152;28;20225;-69
2021/10/05 05:42:21;;;;;;;5.30;4.80;;;11.10;99.90;;;;;;4960074;28;20623;-70
2021/10/05 05:44:51;;;;;;;5.88;5.22;;;11.10;99.90;;;;;;4960157;28;20669;-68
2021/10/05 05:47:18;;;;;;;4.10;3.90;;;11.10;99.90;;;;;;4960853;28;20300;-68
2021/10/05 05:49:45;;;;;;;5.13;4.63;;;11.10;99.90;;;;;;4957291;28;20252;-68
2021/10/05 05:52:11;;;;;;;4.70;4.45;;;11.10;99.90;;;;;;4957307;28;20291;-68
2021/10/05 05:54:38;;;;;;;6.20;4.90;;;11.10;99.90;;;;;;4957258;28;20236;-68
2021/10/05 05:57:05;;;;;;;5.75;5.25;;;11.10;99.90;;;;;;4952228;28;20210;-68
2021/10/05 05:59:31;;;;;;;6.10;5.55;;;11.10;99.90;;;;;;4937671;29;20226;-68
2021/10/05 06:01:59;;;;;;;6.43;5.85;;;11.20;99.90;;;;;;4937700;29;20308;-69
2021/10/05 06:04:26;;;;;;;6.18;5.35;;;11.20;99.90;;;;;;4937141;29;20300;-68
2021/10/05 06:06:53;;;;;;;5.47;4.93;;;11.20;99.90;;;;;;4937775;29;20210;-71
2021/10/05 06:09:20;;;;;;;5.45;5.03;;;11.20;99.90;;;;;;4938728;29;20276;-70
2021/10/05 06:11:49;;;;;;;8.95;5.53;;;11.20;99.90;;;;;;4940445;29;20265;-71
2021/10/05 06:14:15;;;;;;;6.35;4.85;;;11.30;99.90;;;;;;4939029;29;20292;-71
2021/10/05 06:16:42;;;;;;;6.85;4.72;;;11.30;99.90;;;;;;4939854;29;20618;-71
2021/10/05 06:19:10;;;;;;;5.07;4.68;;;11.40;99.90;;;;;;4938588;29;20234;-72
2021/10/05 06:21:37;;;;;;;4.47;4.28;;;11.40;99.90;;;;;;4939879;29;20265;-72
2021/10/05 06:24:04;;;;;;;4.47;4.20;;;11.40;99.90;;;;;;4938589;29;20257;-71
2021/10/05 06:26:31;;;;;;;4.85;4.47;;;11.40;99.90;;;;;;4939900;29;20643;-72
2021/10/05 06:28:57;;;;;;;5.63;5.22;;;11.50;99.90;;;;;;4937088;29;20231;-71
2021/10/05 06:31:24;;;;;;;5.30;4.80;;;11.50;99.90;;;;;;4937286;29;20683;-72
2021/10/05 06:33:51;;;;;;;5.15;4.85;;;11.50;99.90;;;;;;4937604;29;20634;-71
2021/10/05 06:36:19;;;;;;;4.88;4.47;;;11.60;99.90;;;;;;4940335;29;20585;-71
2021/10/05 06:38:45;;;;;;;5.75;5.30;;;11.60;99.90;;;;;;4945274;29;20230;-71
2021/10/05 06:41:12;;;;;;;6.30;4.85;;;11.60;99.90;;;;;;4938030;29;20233;-72
2021/10/05 06:43:39;;;;;;;5.13;4.72;;;11.60;99.90;;;;;;4936969;29;20666;-72
2021/10/05 06:46:05;;;;;;;4.40;4.20;;;11.70;99.90;;;;;;4939663;29;20603;-72
2021/10/05 06:48:32;;;;;;;4.85;4.55;;;11.70;99.90;;;;;;4955642;28;20673;-71
2021/10/05 06:50:59;;;;;;;4.85;4.43;;;11.70;99.90;;;;;;4956539;28;20225;-71
2021/10/05 06:53:27;;;;;;;4.50;4.20;;;11.70;99.90;;;;;;4956630;28;20268;-72
2021/10/05 06:55:54;;;;;;;4.95;4.55;;;11.70;99.90;;;;;;4956367;28;20220;-72
2021/10/05 06:58:21;;;;;;;5.35;4.90;;;11.70;99.90;;;;;;4956099;28;20217;-72
2021/10/05 07:00:47;;;;;;;4.30;4.03;;;11.70;99.90;;;;;;4955208;28;20308;-69
2021/10/05 07:03:14;;;;;;;5.53;4.95;;;11.70;99.90;;;;;;4955671;28;20272;-71
2021/10/05 07:05:41;;;;;;;6.45;4.70;;;11.70;99.90;;;;;;4954694;28;20209;-71
2021/10/05 07:08:09;;;;;;;5.55;5.05;;;11.80;99.90;;;;;;4955689;28;20699;-69
2021/10/05 07:10:39;;;;;;;7.07;6.13;;;11.80;99.90;;;;;;4955314;28;20233;-69
2021/10/05 07:13:07;;;;;;;5.87;5.47;;;11.80;99.90;;;;;;4955188;28;20649;-69
2021/10/05 07:15:34;;;;;;;6.03;5.53;;;11.90;99.90;;;;;;4955835;28;20468;-70
2021/10/05 07:18:01;;;;;;;6.60;5.85;;;11.90;99.90;;;;;;4955350;28;20209;-69
2021/10/05 07:20:29;;;;;;;5.90;5.30;;;11.90;99.90;;;;;;4954982;28;20237;-69
2021/10/05 07:22:57;;;;;;;5.47;4.97;;;12.00;99.90;;;;;;4955423;28;20260;-69
2021/10/05 07:25:24;;;;;;;8.65;5.75;;;12.10;99.90;;;;;;4955117;28;20272;-70
2021/10/05 07:27:52;;;;;;;5.28;4.93;;;12.00;99.90;;;;;;4955471;28;20220;-69
2021/10/05 07:30:23;;;;;;;6.38;5.78;;;12.10;99.90;;;;;;4955291;28;20556;-71
2021/10/05 07:32:50;;;;;;;6.80;6.28;;;12.10;99.90;;;;;;4955498;28;20661;-71
2021/10/05 07:35:18;;;;;;;6.75;6.13;;;12.10;99.90;;;;;;4954511;28;20211;-70
2021/10/05 07:37:44;;;;;;;7.35;6.72;;;12.10;99.90;;;;;;4955416;28;20228;-72
2021/10/05 07:40:15;;;;;;;7.78;7.00;;;12.10;99.90;;;;;;4954533;28;20288;-72
2021/10/05 07:42:42;;;;;;;7.20;6.65;;;12.10;99.90;;;;;;4954553;28;20693;-72
2021/10/05 07:45:11;;;;;;;8.35;7.05;;;12.10;99.90;;;;;;4954811;28;20216;-72
2021/10/05 07:47:38;;;;;;;9.77;7.55;;;12.10;99.90;;;;;;4954851;28;20213;-72
2021/10/05 07:50:06;;;;;;;9.70;8.68;;;12.00;99.90;;;;;;4954288;28;20209;-71
2021/10/05 07:52:32;;;;;;;9.20;8.38;;;12.00;99.90;;;;;;4955163;28;20573;-71
2021/10/05 07:54:59;;;;;;;9.27;8.27;;;12.00;99.90;;;;;;4954632;28;20268;-71
2021/10/05 07:57:26;;;;;;;10.15;9.25;;;12.10;99.90;;;;;;4954671;28;20261;-70
2021/10/05 07:59:52;;;;;;;10.13;8.82;;;12.00;99.90;;;;;;4954318;28;20594;-70
2021/10/05 08:02:20;;;;;;;10.52;9.60;;;12.00;99.90;;;;;;4954396;28;20635;-70
2021/10/05 08:04:47;;;;;;;9.43;8.52;;;12.00;99.90;;;;;;4953821;28;20209;-70
2021/10/05 08:07:14;;;;;;;10.35;9.00;;;12.00;99.90;;;;;;4953138;28;20280;-70
2021/10/05 08:09:40;;;;;;;10.05;8.90;;;12.00;99.90;;;;;;4935328;29;20205;-70
2021/10/05 08:12:08;;;;;;;10.27;8.98;;;11.90;99.90;;;;;;4934424;29;20229;-72
2021/10/05 08:14:34;;;;;;;11.45;9.65;;;11.90;99.90;;;;;;4935245;29;20310;-71
2021/10/05 08:17:03;;;;;;;13.65;9.82;;;11.90;99.90;;;;;;4935341;29;20241;-71
2021/10/05 08:19:31;;;;;;;11.55;8.68;;;11.80;99.90;;;;;;4934957;29;20238;-71
2021/10/05 08:21:58;;;;;;;8.80;8.00;;;11.90;99.90;;;;;;4935084;29;20266;-69
2021/10/05 08:24:25;;;;;;;9.65;8.65;;;11.80;99.90;;;;;;4935010;29;20214;-71
2021/10/05 08:26:52;;;;;;;11.43;8.60;;;11.90;99.90;;;;;;4935148;29;20218;-72
2021/10/05 08:29:19;;;;;;;10.87;9.77;;;11.90;99.90;;;;;;4935263;29;20796;-69
2021/10/05 08:31:46;;;;;;;12.52;9.88;;;12.00;99.90;;;;;;4935154;29;20489;-69
2021/10/05 08:34:13;;;;;;;13.30;9.87;;;12.00;99.90;;;;;;4934686;29;20213;-69
2021/10/05 08:36:41;;;;;;;12.43;10.10;;;12.00;99.90;;;;;;4935458;29;20469;-70
2021/10/05 08:39:10;;;;;;;11.52;10.35;;;12.10;99.90;;;;;;4935152;29;20805;-68
2021/10/05 08:41:38;;;;;;;11.30;10.15;;;12.00;99.90;;;;;;4934936;29;20321;-69
2021/10/05 08:44:05;;;;;;;13.80;12.05;;;12.00;99.90;;;;;;4935118;29;20284;-69
2021/10/05 08:46:37;;;;;;;13.73;12.23;;;12.00;99.90;;;;;;4940699;29;20260;-69
2021/10/05 08:49:04;;;;;;;13.70;11.35;;;12.10;99.90;;;;;;4954026;28;20444;-69
2021/10/05 08:51:31;;;;;;;12.10;10.88;;;12.10;99.90;;;;;;4954749;28;20295;-69
2021/10/05 08:53:59;;;;;;;11.07;9.87;;;12.10;99.90;;;;;;4954184;28;20209;-69
2021/10/05 08:56:26;;;;;;;12.85;10.35;;;12.00;99.90;;;;;;4954481;28;20507;-69
2021/10/05 08:58:53;;;;;;;10.52;9.00;;;12.10;99.90;;;;;;4954208;28;20335;-69
2021/10/05 09:01:20;;;;;;;9.85;8.90;;;12.00;99.90;;;;;;4954376;28;20248;-69
2021/10/05 09:03:51;;;;;;;10.35;9.35;;;12.00;99.90;;;;;;4953863;28;20224;-69
2021/10/05 09:06:19;;;;;;;11.57;8.65;;;12.00;99.90;;;;;;4954247;28;20221;-68
2021/10/05 09:08:48;;;;;;;8.25;7.45;;;12.00;99.90;;;;;;4954170;28;20688;-69
2021/10/05 09:11:17;;;;;;;7.28;6.25;;;12.00;99.90;;;;;;4954430;28;20233;-69
2021/10/05 09:13:47;;;;;;;6.95;5.78;;;12.00;99.90;;;;;;4954243;28;20215;-69
2021/10/05 09:16:20;;;;;;;7.75;7.07;;;11.90;99.90;;;;;;4954779;28;20268;-69
2021/10/05 09:18:58;;;;;;;7.18;6.47;;;11.90;99.90;;;;;;4953664;28;20666;-69
2021/10/05 09:21:26;;;;;;;7.03;6.43;;;11.90;99.90;;;;;;4954304;28;20362;-69
2021/10/05 09:23:55;;;;;;;6.53;5.93;;;11.90;99.90;;;;;;4955028;28;20268;-69
2021/10/05 09:26:34;;;;;;;5.63;5.10;;;11.90;99.90;;;;;;4957771;28;20224;-69
2021/10/05 09:29:11;;;;;;;5.72;5.20;;;11.90;99.90;;;;;;4957378;28;20213;-69
2021/10/05 09:31:54;;;;;;;6.32;5.90;;;11.90;99.90;;;;;;4957443;28;20233;-69
2021/10/05 09:34:32;;;;;;;5.82;5.32;;;11.90;99.90;;;;;;4956604;28;20243;-70
2021/10/05 09:37:04;;;;;;;5.72;5.20;;;11.90;99.90;;;;;;4957533;28;20238;-70
2021/10/05 09:39:37;;;;;;;6.18;5.78;;;12.00;99.90;;;;;;4956967;28;20614;-71
2021/10/05 09:42:05;;;;;;;6.35;5.75;;;12.00;99.90;;;;;;4957260;28;20245;-70
2021/10/05 09:44:32;;;;;;;5.55;5.10;;;12.00;99.90;;;;;;4957262;28;20561;-71
2021/10/05 09:46:59;;;;;;;6.57;5.88;;;12.00;99.90;;;;;;4957519;28;20693;-71
2021/10/05 09:49:25;;;;;;;6.28;5.80;;;12.00;99.90;;;;;;4956253;28;20209;-71
2021/10/05 09:52:00;;;;;;;5.75;5.35;;;12.00;99.90;;;;;;4957206;28;20305;-69
2021/10/05 09:54:27;;;;;;;6.97;6.28;;;12.00;99.90;;;;;;4956562;28;20216;-69
2021/10/05 09:56:54;;;;;;;6.22;5.72;;;12.00;99.90;;;;;;4957438;28;20209;-69
2021/10/05 09:59:23;;;;;;;6.93;6.33;;;12.00;99.90;;;;;;4956934;28;20208;-69
2021/10/05 10:01:49;;;;;;;6.15;5.75;;;12.00;99.90;;;;;;4957022;28;20500;-69
2021/10/05 10:04:17;;;;;;;6.47;6.07;;;12.10;99.90;;;;;;4956153;28;20213;-69
2021/10/05 10:06:46;;;;;;;6.80;6.30;;;12.10;99.90;;;;;;4956937;28;20260;-69
2021/10/05 10:09:13;;;;;;;6.20;5.80;;;12.10;99.90;;;;;;4942448;28;20465;-70
2021/10/05 10:11:40;;;;;;;6.53;6.13;;;12.10;99.90;;;;;;4937548;29;20489;-71
2021/10/05 10:14:07;;;;;;;6.60;6.10;;;12.10;99.90;;;;;;4937349;29;20552;-70
2021/10/05 10:16:36;;;;;;;6.45;5.95;;;12.10;99.90;;;;;;4937873;29;20473;-71
2021/10/05 10:19:03;;;;;;;6.28;5.78;;;12.10;99.90;;;;;;4936557;29;20226;-71
2021/10/05 10:21:33;;;;;;;6.90;6.30;;;12.10;99.90;;;;;;4937426;29;20245;-71
2021/10/05 10:24:10;;;;;;;5.70;5.30;;;12.10;99.90;;;;;;4937128;29;20493;-71
2021/10/05 10:26:40;;;;;;;7.07;6.47;;;12.10;99.90;;;;;;4937163;29;20469;-71
2021/10/05 10:29:07;;;;;;;8.00;6.67;;;12.10;99.90;;;;;;4937078;29;20466;-71
2021/10/05 10:31:38;;;;;;;6.23;5.60;;;12.10;99.90;;;;;;4937190;29;20481;-71
2021/10/05 10:34:06;;;;;;;8.10;5.80;;;12.10;99.90;;;;;;4935992;29;20861;-71
2021/10/05 10:36:34;;;;;;;5.50;5.20;;;12.10;99.90;;;;;;4936644;29;20556;-71
2021/10/05 10:39:06;;;;;;;5.20;4.90;;;12.00;99.90;;;;;;4936791;29;20469;-72
2021/10/05 10:41:34;;;;;;;6.93;6.43;;;12.00;99.90;;;;;;4936794;29;20233;-71
2021/10/05 10:44:03;;;;;;;6.07;5.57;;;12.10;99.90;;;;;;4936197;29;20261;-71
2021/10/05 10:46:33;;;;;;;5.82;5.53;;;12.20;99.90;;;;;;4942134;29;20473;-71
2021/10/05 10:49:04;;;;;;;5.10;4.80;;;12.20;99.90;;;;;;4955338;28;20221;-72
2021/10/05 10:51:39;;;;;;;5.77;5.30;;;12.20;99.90;;;;;;4955819;28;20292;-72
2021/10/05 10:54:14;;;;;;;6.40;5.80;;;12.20;99.90;;;;;;4955604;28;20464;-71
2021/10/05 10:56:42;;;;;;;6.10;5.53;;;12.30;99.90;;;;;;4955977;28;20480;-70
2021/10/05 10:59:10;;;;;;;5.90;5.47;;;12.30;99.90;;;;;;4955617;28;20473;-70
2021/10/05 11:01:39;;;;;;;5.73;5.33;;;12.30;99.90;;;;;;4955695;28;20851;-70
2021/10/05 11:04:09;;;;;;;5.60;5.20;;;12.40;99.90;;;;;;4954417;28;20763;-71
2021/10/05 11:06:36;;;;;;;9.17;6.47;;;12.40;99.90;;;;;;4955628;28;20856;-71
2021/10/05 11:09:05;;;;;;;6.60;5.83;;;12.40;99.90;;;;;;4955544;28;20464;-71
2021/10/05 11:11:35;;;;;;;5.90;5.40;;;12.50;99.90;;;;;;4955316;28;20580;-71
2021/10/05 11:14:03;;;;;;;5.73;5.40;;;12.50;99.90;;;;;;4955454;28;20540;-70
2021/10/05 11:16:31;;;;;;;6.53;6.03;;;12.50;99.90;;;;;;4955482;28;20468;-71
2021/10/05 11:19:07;;;;;;;6.20;5.57;;;12.40;99.90;;;;;;4954907;28;20472;-71
2021/10/05 11:21:36;;;;;;;5.70;5.30;;;12.50;99.90;;;;;;4955088;28;20996;-71
2021/10/05 11:24:03;;;;;;;5.10;4.73;;;12.50;99.90;;;;;;4954985;28;20475;-71
2021/10/05 11:26:38;;;;;;;6.10;5.70;;;12.50;99.90;;;;;;4955330;28;20517;-71
2021/10/05 11:29:06;;;;;;;8.33;5.57;;;12.50;99.90;;;;;;4954864;28;20468;-71
2021/10/05 11:31:46;;;;;;;6.37;6.00;;;12.60;99.90;;;;;;4955098;28;20481;-71
2021/10/05 11:34:15;;;;;;;5.30;5.03;;;12.60;99.90;;;;;;4953936;28;20475;-71
2021/10/05 11:36:42;;;;;;;6.20;5.70;;;12.60;99.90;;;;;;4942655;28;20469;-71
2021/10/05 11:39:11;;;;;;;6.03;5.63;;;12.70;99.90;;;;;;4936155;29;20461;-72
2021/10/05 11:41:40;;;;;;;6.77;6.30;;;12.70;99.90;;;;;;4936005;29;20497;-71
2021/10/05 11:44:17;;;;;;;6.43;5.80;;;12.60;99.90;;;;;;4935817;29;20540;-70
2021/10/05 11:46:57;;;;;;;6.23;5.93;;;12.70;99.90;;;;;;4935829;29;20456;-69
2021/10/05 11:49:27;;;;;;;4.90;4.70;;;12.70;99.90;;;;;;4935740;29;20477;-70
2021/10/05 11:51:54;;;;;;;5.57;5.27;;;12.70;99.90;;;;;;4935796;29;20561;-69
2021/10/05 11:54:23;;;;;;;5.10;4.80;;;12.70;99.90;;;;;;4935471;29;20564;-69
2021/10/05 11:56:50;;;;;;;5.30;5.00;;;12.70;99.90;;;;;;4936346;29;20536;-69
2021/10/05 11:59:29;;;;;;;4.33;4.13;;;12.60;99.90;;;;;;4938827;29;20477;-69
2021/10/05 12:01:58;;;;;;;4.87;4.67;;;12.70;99.90;;;;;;4949315;29;20493;-69
2021/10/05 12:04:28;;;;;;;4.77;4.50;;;12.70;99.90;;;;;;4946190;29;20457;-70
2021/10/05 12:06:59;;;;;;;4.97;4.57;;;12.80;99.90;;;;;;4945038;29;20484;-69
2021/10/05 12:09:26;;;;;;;4.67;4.47;;;12.80;99.90;;;;;;4960235;29;20575;-70
2021/10/05 12:11:58;;;;;;;3.80;3.70;;;12.70;99.90;;;;;;4964293;28;20512;-70
2021/10/05 12:14:34;;;;;;;4.17;4.00;;;12.70;99.90;;;;;;4956235;28;20519;-69
2021/10/05 12:17:04;;;;;;;4.17;3.97;;;12.70;99.90;;;;;;4954781;28;20468;-69
2021/10/05 12:19:35;;;;;;;4.80;4.47;;;12.60;99.90;;;;;;4954562;28;20472;-70
2021/10/05 12:22:04;;;;;;;5.73;5.17;;;12.60;99.90;;;;;;4955586;28;20493;-69
2021/10/05 12:24:40;;;;;;;4.67;4.30;;;12.70;99.90;;;;;;4954618;28;20469;-69
2021/10/05 12:27:07;;;;;;;4.67;4.47;;;12.80;99.90;;;;;;4955177;28;20471;-69
2021/10/05 12:29:45;;;;;;;4.77;4.47;;;12.80;99.90;;;;;;4954828;28;20464;-70
2021/10/05 12:32:11;;;;;;;4.70;4.40;;;12.80;99.90;;;;;;4955313;28;20488;-69
2021/10/05 12:34:40;;;;;;;5.27;4.80;;;12.90;99.90;;;;;;4956298;28;20471;-69
2021/10/05 12:37:09;;;;;;;7.57;6.87;;;12.90;99.90;;;;;;4954315;28;20460;-69
2021/10/05 12:39:36;;;;;;;9.00;7.40;;;13.00;99.90;;;;;;4954661;28;20520;-68
2021/10/05 12:42:07;;;;;;;5.80;5.50;;;13.00;99.90;;;;;;4954846;28;20511;-68
2021/10/05 12:44:35;;;;;;;5.73;5.40;;;13.00;99.90;;;;;;4954629;28;20844;-68
2021/10/05 12:47:07;;;;;;;6.40;6.00;;;13.10;99.90;;;;;;4954053;28;20469;-71
2021/10/05 12:49:33;;;;;;;6.40;6.00;;;13.10;99.90;;;;;;4953624;28;20870;-69
2021/10/05 12:52:04;;;;;;;5.60;5.20;;;13.00;99.90;;;;;;4954262;28;20477;-69
2021/10/05 12:54:31;;;;;;;6.10;5.70;;;13.00;99.90;;;;;;4959802;28;20586;-69
2021/10/05 12:57:02;;;;;;;6.10;5.70;;;13.00;99.90;;;;;;4952827;28;20535;-69
2021/10/05 12:59:29;;;;;;;5.20;4.80;;;13.00;99.90;;;;;;4937289;29;20476;-69
2021/10/05 13:01:55;;;;;;;5.87;5.47;;;12.90;99.90;;;;;;4938568;29;20579;-69
2021/10/05 13:04:22;;;;;;;6.80;6.30;;;13.00;99.90;;;;;;4938295;29;20469;-69
2021/10/05 13:06:49;;;;;;;5.70;5.30;;;13.00;99.90;;;;;;4938755;29;20486;-70
2021/10/05 13:09:17;;;;;;;6.40;5.90;;;13.00;99.90;;;;;;4938330;29;20637;-70
2021/10/05 13:11:44;;;;;;;4.73;4.43;;;13.00;99.90;;;;;;4938496;29;20477;-71
2021/10/05 13:14:10;;;;;;;4.97;4.77;;;13.00;99.90;;;;;;4938287;29;20477;-70
2021/10/05 13:16:37;;;;;;;6.40;5.90;;;13.00;99.90;;;;;;4938321;29;20481;-71
2021/10/05 13:19:04;;;;;;;5.70;5.30;;;13.00;99.90;;;;;;4938461;29;20885;-70
2021/10/05 13:21:32;;;;;;;4.67;4.50;;;13.10;99.90;;;;;;4938630;29;20503;-70
2021/10/05 13:23:59;;;;;;;5.00;4.80;;;13.10;99.90;;;;;;4938384;29;20465;-70
2021/10/05 13:26:27;;;;;;;5.80;5.50;;;13.00;99.90;;;;;;4938597;29;20520;-70
2021/10/05 13:28:56;;;;;;;5.10;4.87;;;13.10;99.90;;;;;;4938312;29;20492;-70
2021/10/05 13:31:23;;;;;;;5.60;5.20;;;13.10;99.90;;;;;;4938472;29;20513;-71
2021/10/05 13:33:49;;;;;;;7.10;6.53;;;13.10;99.90;;;;;;4937323;29;20942;-71
2021/10/05 13:36:16;;;;;;;7.53;6.80;;;13.10;99.90;;;;;;4938450;29;20819;-71
2021/10/05 13:38:43;;;;;;;6.90;6.50;;;13.20;99.90;;;;;;4938137;29;20465;-71
2021/10/05 13:41:11;;;;;;;6.53;6.03;;;13.20;99.90;;;;;;4937958;29;20493;-71
2021/10/05 13:43:39;;;;;;;5.90;5.50;;;13.20;99.90;;;;;;4938033;29;20473;-71
2021/10/05 13:46:05;;;;;;;5.63;5.23;;;13.10;99.90;;;;;;4938186;29;20612;-69
2021/10/05 13:48:32;;;;;;;5.70;5.27;;;12.90;99.90;;;;;;4938196;29;20470;-70
2021/10/05 13:50:59;;;;;;;5.60;5.20;;;13.00;99.90;;;;;;4938161;29;20884;-69
2021/10/05 13:53:26;;;;;;;5.87;5.37;;;13.00;99.90;;;;;;4937771;29;21028;-69
2021/10/05 13:55:52;;;;;;;5.37;4.97;;;13.00;99.90;;;;;;4937626;29;21013;-69
2021/10/05 13:58:19;;;;;;;6.07;5.67;;;13.00;99.90;;;;;;4937798;29;20500;-69
2021/10/05 14:00:47;;;;;;;6.40;5.97;;;13.00;99.90;;;;;;4937390;29;20568;-69
2021/10/05 14:03:14;;;;;;;6.70;6.30;;;13.10;99.90;;;;;;4937748;29;20942;-68
2021/10/05 14:05:41;;;;;;;7.07;5.87;;;13.10;99.90;;;;;;4937504;29;20470;-69
2021/10/05 14:08:07;;;;;;;5.77;5.33;;;13.20;99.90;;;;;;4938071;29;20461;-67
2021/10/05 14:10:34;;;;;;;6.47;5.87;;;13.20;99.90;;;;;;4937656;29;20485;-70
2021/10/05 14:13:01;;;;;;;6.10;5.60;;;13.30;99.90;;;;;;4939152;29;20469;-69
2021/10/05 14:15:28;;;;;;;6.00;5.53;;;13.40;99.90;;;;;;4941252;29;20469;-70
2021/10/05 14:17:56;;;;;;;6.00;5.60;;;13.40;99.90;;;;;;4940107;29;20966;-70
2021/10/05 14:20:22;;;;;;;6.10;5.73;;;13.50;99.90;;;;;;4937082;29;20470;-67
2021/10/05 14:22:49;;;;;;;6.53;5.90;;;13.50;99.90;;;;;;4937517;29;20496;-68
2021/10/05 14:25:18;;;;;;;5.30;5.00;;;13.60;99.90;;;;;;4938589;29;20497;-68
2021/10/05 14:27:47;;;;;;;4.50;4.30;;;13.60;99.90;;;;;;4938556;29;20465;-70
2021/10/05 14:30:14;;;;;;;4.87;4.63;;;13.60;99.90;;;;;;4937086;29;20465;-69
2021/10/05 14:32:41;;;;;;;4.50;4.27;;;13.60;99.90;;;;;;4937297;29;20937;-70
2021/10/05 14:35:10;;;;;;;4.43;4.23;;;13.60;99.90;;;;;;4936397;29;20499;-70
2021/10/05 14:37:37;;;;;;;4.37;4.23;;;13.50;99.90;;;;;;4937224;29;20469;-68
2021/10/05 14:40:05;;;;;;;4.20;4.10;;;13.50;99.90;;;;;;4937011;29;20895;-68
2021/10/05 14:42:32;;;;;;;4.37;4.17;;;13.50;99.90;;;;;;4937227;29;20490;-68
2021/10/05 14:44:59;;;;;;;5.07;4.77;;;13.50;99.90;;;;;;4936910;29;20466;-68
2021/10/05 14:47:26;;;;;;;5.50;5.20;;;13.50;99.90;;;;;;4937451;29;20878;-67
2021/10/05 14:49:54;;;;;;;5.73;5.40;;;13.50;99.90;;;;;;4936926;29;20473;-68
2021/10/05 14:52:22;;;;;;;5.57;5.07;;;13.50;99.90;;;;;;4936792;29;20482;-68
2021/10/05 14:54:50;;;;;;;5.27;4.80;;;13.50;99.90;;;;;;4936614;29;20535;-68
2021/10/05 14:57:17;;;;;;;5.77;5.43;;;13.40;99.90;;;;;;4940668;29;20888;-68
2021/10/05 14:59:44;;;;;;;5.30;4.90;;;13.40;99.90;;;;;;4955813;28;20468;-67
2021/10/05 15:02:11;;;;;;;5.07;4.80;;;13.40;99.90;;;;;;4955626;28;20563;-67
2021/10/05 15:04:40;;;;;;;5.03;4.83;;;13.40;99.90;;;;;;4955583;28;20484;-68
2021/10/05 15:07:08;;;;;;;6.10;5.60;;;13.40;99.90;;;;;;4955856;28;20491;-69
2021/10/05 15:09:36;;;;;;;6.00;5.70;;;13.40;99.90;;;;;;4955848;28;20520;-67
2021/10/05 15:12:04;;;;;;;6.30;5.80;;;13.40;99.90;;;;;;4955573;28;20532;-68
2021/10/05 15:14:30;;;;;;;6.30;5.90;;;13.40;99.90;;;;;;4955788;28;20465;-67
2021/10/05 15:16:57;;;;;;;5.50;5.20;;;13.50;99.90;;;;;;4956000;28;20539;-68
2021/10/05 15:19:24;;;;;;;5.87;5.47;;;13.50;99.90;;;;;;4955362;28;20468;-70
2021/10/05 15:21:50;;;;;;;6.73;6.23;;;13.40;99.90;;;;;;4955292;28;20496;-70
2021/10/05 15:24:17;;;;;;;6.40;5.90;;;13.40;99.90;;;;;;4955318;28;20465;-68
2021/10/05 15:26:45;;;;;;;7.00;6.40;;;13.40;99.90;;;;;;4955294;28;20469;-68
2021/10/05 15:29:12;;;;;;;6.47;5.97;;;13.40;99.90;;;;;;4955711;28;21090;-68
2021/10/05 15:31:39;;;;;;;6.00;5.60;;;13.30;99.90;;;;;;4955046;28;20608;-68
2021/10/05 15:34:05;;;;;;;6.77;6.27;;;13.30;99.90;;;;;;4954065;28;20532;-69
2021/10/05 15:36:32;;;;;;;7.83;7.23;;;13.20;99.90;;;;;;4944399;28;20469;-68
2021/10/05 15:38:59;;;;;;;6.53;6.10;;;13.20;99.90;;;;;;4935880;29;20529;-68
2021/10/05 15:41:25;;;;;;;7.23;6.63;;;13.20;99.90;;;;;;4935824;29;20899;-68
2021/10/05 15:43:53;;;;;;;7.70;7.10;;;13.20;99.90;;;;;;4935747;29;20851;-68
2021/10/05 15:46:23;;;;;;;10.10;7.70;;;13.20;99.90;;;;;;4935943;29;20478;-68
2021/10/05 15:48:50;;;;;;;7.70;7.13;;;13.20;99.90;;;;;;4935135;29;21025;-68
2021/10/05 15:51:23;;;;;;;9.47;8.57;;;13.30;99.90;;;;;;4935756;29;20490;-68
2021/10/05 15:53:50;;;;;;;9.07;8.17;;;13.30;99.90;;;;;;4935803;29;20517;-68
2021/10/05 15:56:16;;;;;;;7.90;7.30;;;13.30;99.90;;;;;;4935633;29;20473;-68
2021/10/05 15:58:43;;;;;;;8.53;7.83;;;13.30;99.90;;;;;;4935876;29;20552;-68
2021/10/05 16:01:11;;;;;;;9.50;8.70;;;13.30;99.90;;;;;;4935230;29;20504;-68
2021/10/05 16:03:38;;;;;;;15.83;14.23;;;13.20;99.90;;;;;;4934366;29;20469;-68
2021/10/05 16:06:04;;;;;;;9.20;8.37;;;13.30;99.90;;;;;;4935535;29;21021;-70
2021/10/05 16:08:34;;;;;;;10.27;9.37;;;13.30;99.90;;;;;;4935405;29;20557;-69
2021/10/05 16:11:00;;;;;;;9.83;8.83;;;13.20;99.90;;;;;;4935274;29;20482;-71
2021/10/05 16:13:27;;;;;;;9.37;8.50;;;13.30;99.90;;;;;;4934922;29;20465;-70
2021/10/05 16:15:55;;;;;;;9.80;8.60;;;13.20;99.90;;;;;;4935489;29;20469;-72
2021/10/05 16:18:23;;;;;;;10.57;9.27;;;13.20;99.90;;;;;;4935371;29;20485;-71
2021/10/05 16:20:49;;;;;;;15.50;10.33;;;13.20;99.90;;;;;;4934508;29;20552;-72
2021/10/05 16:23:16;;;;;;;23.07;13.07;;;13.20;99.90;;;;;;4934923;29;20501;-72
2021/10/05 16:25:43;;;;;;;22.27;12.93;;;13.20;99.90;;;;;;4934988;29;20465;-69
2021/10/05 16:28:10;;;;;;;19.70;13.70;;;13.10;99.90;;;;;;4935152;29;20617;-69
2021/10/05 16:30:36;;;;;;;25.90;15.70;;;13.10;99.90;;;;;;4934610;29;20489;-69
2021/10/05 16:33:05;;;;;;;21.20;14.07;;;13.10;99.90;;;;;;4934576;29;20545;-68
2021/10/05 16:35:33;;;;;;;24.40;14.77;;;13.00;99.90;;;;;;4934162;29;20801;-70
2021/10/05 16:38:00;;;;;;;26.38;16.27;;;13.00;99.90;;;;;;4935186;29;20521;-69
2021/10/05 16:40:26;;;;;;;33.63;17.05;;;12.90;99.90;;;;;;4934828;29;20690;-66
2021/10/05 16:42:53;;;;;;;35.50;17.35;;;12.80;99.90;;;;;;4934732;29;20221;-67
2021/10/05 16:45:20;;;;;;;34.10;17.53;;;12.80;99.90;;;;;;4934952;29;20288;-66
2021/10/05 16:47:47;;;;;;;40.60;20.35;;;12.80;99.90;;;;;;4935148;29;20816;-67
2021/10/05 16:50:14;;;;;;;33.05;18.10;;;12.80;99.90;;;;;;4934674;29;20253;-66